sensor_id;sensor_type;location;lat;lon;timestamp;temperature;humidity
37410;DHT22;23275;48.914;12.566;2023-04-01T00:00:16;8.30;99.90
37410;DHT22;23275;48.914;12.566;2023-04-01T00:02:42;8.30;99.90
37410;DHT22;23275;48.914;12.566;2023-04-01T00:05:08;8.30;99.90
37410;DHT22;23275;48.914;12.566;2023-04-01T00:07:36;8.30;99.90
37410;DHT22;23275;48.914;12.566;2023-04-01T00:10:06;8.30;99.90
37410;DHT22;23275;48.914;12.566;2023-04-01T00:12:32;8.20;99.90
37410;DHT22;23275;48.914;12.566;2023-04-01T00:14:58;8.20;99.90
37410;DHT22;23275;48.914;12.566;2023-04-01T00:17:24;8.20;99.90
37410;DHT22;23275;48.914;12.566;2023-04-01T00:19:49;8.20;99.90
37410;DHT22;23275;48.914;12.566;2023-04-01T00:22:15;8.20;99.90
37410;DHT22;23275;48.914;12.566;2023-04-01T00:24:40;8.20;99.90
37410;DHT22;23275;48.914;12.566;2023-04-01T00:27:06;8.20;99.90
37410;DHT22;23275;48.914;12.566;2023-04-01T00:29:33;8.20;99.90
37410;DHT22;23275;48.914;12.566;2023-04-01T00:31:59;8.20;99.90
37410;DHT22;23275;48.914;12.566;2023-04-01T00:34:25;8.20;99.90
37410;DHT22;23275;48.914;12.566;2023-04-01T00:36:51;8.20;99.90
37410;DHT22;23275;48.914;12.566;2023-04-01T00:39:18;8.20;99.90
37410;DHT22;23275;48.914;12.566;2023-04-01T00:41:43;8.10;99.90
37410;DHT22;23275;48.914;12.566;2023-04-01T00:44:20;8.10;99.90
37410;DHT22;23275;48.914;12.566;2023-04-01T00:46:46;8.20;99.90
37410;DHT22;23275;48.914;12.566;2023-04-01T00:49:13;8.20;99.90
37410;DHT22;23275;48.914;12.566;2023-04-01T00:51:39;8.20;99.90
37410;DHT22;23275;48.914;12.566;2023-04-01T00:54:07;8.20;99.90
37410;DHT22;23275;48.914;12.566;2023-04-01T00:56:40;8.20;99.90
37410;DHT22;23275;48.914;12.566;2023-04-01T00:59:11;8.20;99.90
37410;DHT22;23275;48.914;12.566;2023-04-01T01:01:38;8.20;99.90
37410;DHT22;23275;48.914;12.566;2023-04-01T01:04:04;8.20;99.90
37410;DHT22;23275;48.914;12.566;2023-04-01T01:09:12;8.20;99.90
37410;DHT22;23275;48.914;12.566;2023-04-01T01:12:11;8.20;99.90
37410;DHT22;23275;48.914;12.566;2023-04-01T01:14:58;8.30;99.90
37410;DHT22;23275;48.914;12.566;2023-04-01T01:31:03;8.20;99.90
37410;DHT22;23275;48.914;12.566;2023-04-01T01:34:01;8.20;99.90
37410;DHT22;23275;48.914;12.566;2023-04-01T01:36:32;8.20;99.90
37410;DHT22;23275;48.914;12.566;2023-04-01T01:39:06;8.20;99.90
37410;DHT22;23275;48.914;12.566;2023-04-01T01:41:32;8.20;99.90
37410;DHT22;23275;48.914;12.566;2023-04-01T01:43:59;8.20;99.90
37410;DHT22;23275;48.914;12.566;2023-04-01T01:46:28;8.20;99.90
37410;DHT22;23275;48.914;12.566;2023-04-01T01:48:56;8.20;99.90
37410;DHT22;23275;48.914;12.566;2023-04-01T01:51:23;8.20;99.90
37410;DHT22;23275;48.914;12.566;2023-04-01T01:53:49;8.20;99.90
37410;DHT22;23275;48.914;12.566;2023-04-01T01:56:18;8.20;99.90
37410;DHT22;23275;48.914;12.566;2023-04-01T01:58:47;8.20;99.90
37410;DHT22;23275;48.914;12.566;2023-04-01T02:01:20;8.20;99.90
37410;DHT22;23275;48.914;12.566;2023-04-01T02:03:48;8.20;99.90
37410;DHT22;23275;48.914;12.566;2023-04-01T02:06:18;8.20;99.90
37410;DHT22;23275;48.914;12.566;2023-04-01T02:09:05;8.10;99.90
37410;DHT22;23275;48.914;12.566;2023-04-01T02:11:34;8.10;99.90
37410;DHT22;23275;48.914;12.566;2023-04-01T02:14:09;8.10;99.90
37410;DHT22;23275;48.914;12.566;2023-04-01T02:17:04;8.10;99.90
37410;DHT22;23275;48.914;12.566;2023-04-01T02:19:40;8.10;99.90
37410;DHT22;23275;48.914;12.566;2023-04-01T02:22:11;8.10;99.90
37410;DHT22;23275;48.914;12.566;2023-04-01T02:24:40;8.10;99.90
37410;DHT22;23275;48.914;12.566;2023-04-01T02:27:06;8.10;99.90
37410;DHT22;23275;48.914;12.566;2023-04-01T02:29:32;8.10;99.90
37410;DHT22;23275;48.914;12.566;2023-04-01T02:31:58;8.10;99.90
37410;DHT22;23275;48.914;12.566;2023-04-01T02:34:25;8.10;99.90
37410;DHT22;23275;48.914;12.566;2023-04-01T02:36:52;8.10;99.90
37410;DHT22;23275;48.914;12.566;2023-04-01T02:39:19;8.10;99.90
37410;DHT22;23275;48.914;12.566;2023-04-01T02:41:45;8.10;99.90
37410;DHT22;23275;48.914;12.566;2023-04-01T02:44:13;8.10;99.90
37410;DHT22;23275;48.914;12.566;2023-04-01T02:46:39;8.10;99.90
37410;DHT22;23275;48.914;12.566;2023-04-01T02:49:05;8.10;99.90
37410;DHT22;23275;48.914;12.566;2023-04-01T02:51:32;8.10;99.90
37410;DHT22;23275;48.914;12.566;2023-04-01T02:53:57;8.10;99.90
37410;DHT22;23275;48.914;12.566;2023-04-01T02:56:23;8.10;99.90
37410;DHT22;23275;48.914;12.566;2023-04-01T02:58:48;8.10;99.90
37410;DHT22;23275;48.914;12.566;2023-04-01T03:01:14;8.10;99.90
37410;DHT22;23275;48.914;12.566;2023-04-01T03:03:40;8.10;99.90
37410;DHT22;23275;48.914;12.566;2023-04-01T03:06:07;8.10;99.90
37410;DHT22;23275;48.914;12.566;2023-04-01T03:08:34;8.10;99.90
37410;DHT22;23275;48.914;12.566;2023-04-01T03:10:59;8.10;99.90
37410;DHT22;23275;48.914;12.566;2023-04-01T03:13:25;8.10;99.90
37410;DHT22;23275;48.914;12.566;2023-04-01T03:15:51;8.10;99.90
37410;DHT22;23275;48.914;12.566;2023-04-01T03:18:16;8.10;99.90
37410;DHT22;23275;48.914;12.566;2023-04-01T03:20:42;8.10;99.90
37410;DHT22;23275;48.914;12.566;2023-04-01T03:23:08;8.10;99.90
37410;DHT22;23275;48.914;12.566;2023-04-01T03:25:33;8.10;99.90
37410;DHT22;23275;48.914;12.566;2023-04-01T03:27:59;8.10;99.90
37410;DHT22;23275;48.914;12.566;2023-04-01T03:30:25;8.10;99.90
37410;DHT22;23275;48.914;12.566;2023-04-01T03:32:51;8.10;99.90
37410;DHT22;23275;48.914;12.566;2023-04-01T03:35:17;8.10;99.90
37410;DHT22;23275;48.914;12.566;2023-04-01T03:37:43;8.10;99.90
37410;DHT22;23275;48.914;12.566;2023-04-01T03:40:09;8.10;99.90
37410;DHT22;23275;48.914;12.566;2023-04-01T03:42:34;8.10;99.90
37410;DHT22;23275;48.914;12.566;2023-04-01T03:45:00;8.10;99.90
37410;DHT22;23275;48.914;12.566;2023-04-01T03:47:26;8.00;99.90
37410;DHT22;23275;48.914;12.566;2023-04-01T03:49:51;8.10;99.90
37410;DHT22;23275;48.914;12.566;2023-04-01T03:52:17;8.10;99.90
37410;DHT22;23275;48.914;12.566;2023-04-01T03:54:43;8.10;99.90
37410;DHT22;23275;48.914;12.566;2023-04-01T03:57:08;8.10;99.90
37410;DHT22;23275;48.914;12.566;2023-04-01T03:59:34;8.10;99.90
37410;DHT22;23275;48.914;12.566;2023-04-01T04:01:59;8.10;99.90
37410;DHT22;23275;48.914;12.566;2023-04-01T04:04:26;8.00;99.90
37410;DHT22;23275;48.914;12.566;2023-04-01T04:06:51;8.00;99.90
37410;DHT22;23275;48.914;12.566;2023-04-01T04:09:17;8.00;99.90
37410;DHT22;23275;48.914;12.566;2023-04-01T04:11:43;8.00;99.90
37410;DHT22;23275;48.914;12.566;2023-04-01T04:14:08;8.00;99.90
37410;DHT22;23275;48.914;12.566;2023-04-01T04:16:37;8.00;99.90
37410;DHT22;23275;48.914;12.566;2023-04-01T04:19:03;8.00;99.90
37410;DHT22;23275;48.914;12.566;2023-04-01T04:21:29;8.00;99.90
37410;DHT22;23275;48.914;12.566;2023-04-01T04:23:55;7.90;99.90
37410;DHT22;23275;48.914;12.566;2023-04-01T04:26:20;7.90;99.90
37410;DHT22;23275;48.914;12.566;2023-04-01T04:28:46;7.90;99.90
37410;DHT22;23275;48.914;12.566;2023-04-01T04:31:11;7.90;99.90
37410;DHT22;23275;48.914;12.566;2023-04-01T04:33:37;7.90;99.90
37410;DHT22;23275;48.914;12.566;2023-04-01T04:36:04;7.90;99.90
37410;DHT22;23275;48.914;12.566;2023-04-01T04:38:30;7.90;99.90
37410;DHT22;23275;48.914;12.566;2023-04-01T04:40:56;7.90;99.90
37410;DHT22;23275;48.914;12.566;2023-04-01T04:43:21;7.90;99.90
37410;DHT22;23275;48.914;12.566;2023-04-01T04:45:47;7.90;99.90
37410;DHT22;23275;48.914;12.566;2023-04-01T04:48:14;7.90;99.90
37410;DHT22;23275;48.914;12.566;2023-04-01T04:50:44;7.90;99.90
37410;DHT22;23275;48.914;12.566;2023-04-01T04:53:11;7.90;99.90
37410;DHT22;23275;48.914;12.566;2023-04-01T04:55:36;7.90;99.90
37410;DHT22;23275;48.914;12.566;2023-04-01T04:58:02;7.90;99.90
37410;DHT22;23275;48.914;12.566;2023-04-01T05:00:28;7.90;99.90
37410;DHT22;23275;48.914;12.566;2023-04-01T05:02:53;7.90;99.90
37410;DHT22;23275;48.914;12.566;2023-04-01T05:05:19;7.90;99.90
37410;DHT22;23275;48.914;12.566;2023-04-01T05:07:45;7.90;99.90
37410;DHT22;23275;48.914;12.566;2023-04-01T05:10:10;7.90;99.90
37410;DHT22;23275;48.914;12.566;2023-04-01T05:12:36;7.90;99.90
37410;DHT22;23275;48.914;12.566;2023-04-01T05:15:05;7.80;99.90
37410;DHT22;23275;48.914;12.566;2023-04-01T05:17:31;7.80;99.90
37410;DHT22;23275;48.914;12.566;2023-04-01T05:19:57;7.80;99.90
37410;DHT22;23275;48.914;12.566;2023-04-01T05:22:22;7.80;99.90
37410;DHT22;23275;48.914;12.566;2023-04-01T05:24:48;7.80;99.90
37410;DHT22;23275;48.914;12.566;2023-04-01T05:27:14;7.80;99.90
37410;DHT22;23275;48.914;12.566;2023-04-01T05:29:40;7.80;99.90
37410;DHT22;23275;48.914;12.566;2023-04-01T05:32:05;7.90;99.90
37410;DHT22;23275;48.914;12.566;2023-04-01T05:34:31;7.90;99.90
37410;DHT22;23275;48.914;12.566;2023-04-01T05:36:56;8.00;99.90
37410;DHT22;23275;48.914;12.566;2023-04-01T05:39:22;7.90;99.90
37410;DHT22;23275;48.914;12.566;2023-04-01T05:41:48;8.00;99.90
37410;DHT22;23275;48.914;12.566;2023-04-01T05:44:14;8.10;99.90
37410;DHT22;23275;48.914;12.566;2023-04-01T05:46:40;8.10;99.90
37410;DHT22;23275;48.914;12.566;2023-04-01T05:49:06;8.10;99.90
37410;DHT22;23275;48.914;12.566;2023-04-01T05:51:31;8.20;99.90
37410;DHT22;23275;48.914;12.566;2023-04-01T05:53:57;8.30;99.90
37410;DHT22;23275;48.914;12.566;2023-04-01T05:56:22;8.30;99.90
37410;DHT22;23275;48.914;12.566;2023-04-01T05:58:51;8.40;99.90
37410;DHT22;23275;48.914;12.566;2023-04-01T06:01:17;8.40;99.90
37410;DHT22;23275;48.914;12.566;2023-04-01T06:03:44;8.40;99.90
37410;DHT22;23275;48.914;12.566;2023-04-01T06:06:28;8.40;99.90
37410;DHT22;23275;48.914;12.566;2023-04-01T06:08:57;8.40;99.90
37410;DHT22;23275;48.914;12.566;2023-04-01T06:11:37;8.50;99.90
37410;DHT22;23275;48.914;12.566;2023-04-01T06:14:40;8.50;99.90
37410;DHT22;23275;48.914;12.566;2023-04-01T06:17:26;8.50;99.90
37410;DHT22;23275;48.914;12.566;2023-04-01T06:20:05;8.60;99.90
37410;DHT22;23275;48.914;12.566;2023-04-01T06:28:41;8.60;99.90
37410;DHT22;23275;48.914;12.566;2023-04-01T06:31:37;8.60;99.90
37410;DHT22;23275;48.914;12.566;2023-04-01T06:37:18;8.70;99.90
37410;DHT22;23275;48.914;12.566;2023-04-01T06:45:10;9.00;99.90
37410;DHT22;23275;48.914;12.566;2023-04-01T06:48:14;9.00;99.90
37410;DHT22;23275;48.914;12.566;2023-04-01T06:56:04;9.10;99.90
37410;DHT22;23275;48.914;12.566;2023-04-01T06:58:52;9.20;99.90
37410;DHT22;23275;48.914;12.566;2023-04-01T07:01:42;9.20;99.90
37410;DHT22;23275;48.914;12.566;2023-04-01T07:04:14;9.30;99.90
37410;DHT22;23275;48.914;12.566;2023-04-01T07:06:56;9.40;99.90
37410;DHT22;23275;48.914;12.566;2023-04-01T07:09:26;9.50;99.90
37410;DHT22;23275;48.914;12.566;2023-04-01T07:11:58;9.50;99.90
37410;DHT22;23275;48.914;12.566;2023-04-01T07:14:36;9.50;99.90
37410;DHT22;23275;48.914;12.566;2023-04-01T07:17:16;9.50;99.90
37410;DHT22;23275;48.914;12.566;2023-04-01T07:22:32;9.80;99.90
37410;DHT22;23275;48.914;12.566;2023-04-01T07:25:11;10.00;99.90
37410;DHT22;23275;48.914;12.566;2023-04-01T07:27:36;10.10;99.90
37410;DHT22;23275;48.914;12.566;2023-04-01T07:30:06;10.30;99.90
37410;DHT22;23275;48.914;12.566;2023-04-01T07:32:47;10.40;99.90
37410;DHT22;23275;48.914;12.566;2023-04-01T07:35:41;10.60;99.90
37410;DHT22;23275;48.914;12.566;2023-04-01T07:38:34;10.70;99.90
37410;DHT22;23275;48.914;12.566;2023-04-01T07:46:55;11.00;99.90
37410;DHT22;23275;48.914;12.566;2023-04-01T07:49:50;10.90;99.90
37410;DHT22;23275;48.914;12.566;2023-04-01T08:05:25;10.80;99.90
37410;DHT22;23275;48.914;12.566;2023-04-01T08:08:05;10.90;99.90
37410;DHT22;23275;48.914;12.566;2023-04-01T08:11:01;11.10;99.90
37410;DHT22;23275;48.914;12.566;2023-04-01T08:16:23;11.10;99.90
37410;DHT22;23275;48.914;12.566;2023-04-01T08:21:54;11.90;99.90
37410;DHT22;23275;48.914;12.566;2023-04-01T08:24:39;12.30;99.90
37410;DHT22;23275;48.914;12.566;2023-04-01T08:27:12;12.20;99.90
37410;DHT22;23275;48.914;12.566;2023-04-01T08:30:18;12.10;99.90
37410;DHT22;23275;48.914;12.566;2023-04-01T08:32:49;11.70;99.90
37410;DHT22;23275;48.914;12.566;2023-04-01T08:35:30;11.50;99.90
37410;DHT22;23275;48.914;12.566;2023-04-01T08:38:01;11.30;99.90
37410;DHT22;23275;48.914;12.566;2023-04-01T08:59:21;12.00;99.90
37410;DHT22;23275;48.914;12.566;2023-04-01T09:07:34;13.00;99.90
37410;DHT22;23275;48.914;12.566;2023-04-01T09:10:39;13.20;99.90
37410;DHT22;23275;48.914;12.566;2023-04-01T09:16:18;13.10;99.90
37410;DHT22;23275;48.914;12.566;2023-04-01T09:19:15;12.70;99.90
37410;DHT22;23275;48.914;12.566;2023-04-01T09:22:00;12.50;99.90
37410;DHT22;23275;48.914;12.566;2023-04-01T09:27:28;12.10;99.90
37410;DHT22;23275;48.914;12.566;2023-04-01T09:38:56;11.50;99.90
37410;DHT22;23275;48.914;12.566;2023-04-01T09:41:29;11.50;99.90
37410;DHT22;23275;48.914;12.566;2023-04-01T09:44:02;11.40;99.90
37410;DHT22;23275;48.914;12.566;2023-04-01T09:46:49;11.30;99.90
37410;DHT22;23275;48.914;12.566;2023-04-01T10:00:37;11.40;99.90
37410;DHT22;23275;48.914;12.566;2023-04-01T10:08:49;11.90;99.90
37410;DHT22;23275;48.914;12.566;2023-04-01T10:11:37;11.80;99.90
37410;DHT22;23275;48.914;12.566;2023-04-01T10:25:55;12.00;99.90
37410;DHT22;23275;48.914;12.566;2023-04-01T10:28:48;11.90;99.90
37410;DHT22;23275;48.914;12.566;2023-04-01T10:37:43;12.00;99.90
37410;DHT22;23275;48.914;12.566;2023-04-01T10:41:22;12.10;99.90
37410;DHT22;23275;48.914;12.566;2023-04-01T10:51:50;12.70;99.90
37410;DHT22;23275;48.914;12.566;2023-04-01T10:57:16;12.70;99.90
37410;DHT22;23275;48.914;12.566;2023-04-01T11:05:46;12.60;99.90
37410;DHT22;23275;48.914;12.566;2023-04-01T11:11:39;12.30;99.90
37410;DHT22;23275;48.914;12.566;2023-04-01T11:14:20;12.30;99.90
37410;DHT22;23275;48.914;12.566;2023-04-01T11:20:13;12.30;99.90
37410;DHT22;23275;48.914;12.566;2023-04-01T11:25:42;12.40;99.90
37410;DHT22;23275;48.914;12.566;2023-04-01T11:31:56;12.40;99.90
37410;DHT22;23275;48.914;12.566;2023-04-01T11:40:05;12.30;99.90
37410;DHT22;23275;48.914;12.566;2023-04-01T11:42:40;12.20;99.90
37410;DHT22;23275;48.914;12.566;2023-04-01T11:47:53;12.30;99.90
37410;DHT22;23275;48.914;12.566;2023-04-01T11:50:33;12.30;99.90
37410;DHT22;23275;48.914;12.566;2023-04-01T11:53:10;12.20;99.90
37410;DHT22;23275;48.914;12.566;2023-04-01T12:09:25;13.00;99.90
37410;DHT22;23275;48.914;12.566;2023-04-01T12:12:16;12.80;99.90
37410;DHT22;23275;48.914;12.566;2023-04-01T12:23:03;12.50;99.90
37410;DHT22;23275;48.914;12.566;2023-04-01T12:28:41;12.00;99.90
37410;DHT22;23275;48.914;12.566;2023-04-01T12:42:23;11.10;99.90
37410;DHT22;23275;48.914;12.566;2023-04-01T12:44:59;10.80;99.90
37410;DHT22;23275;48.914;12.566;2023-04-01T12:53:29;10.90;99.90
37410;DHT22;23275;48.914;12.566;2023-04-01T12:56:02;10.80;99.90
37410;DHT22;23275;48.914;12.566;2023-04-01T13:02:00;10.80;99.90
37410;DHT22;23275;48.914;12.566;2023-04-01T13:04:48;10.90;99.90
37410;DHT22;23275;48.914;12.566;2023-04-01T13:16:24;10.90;99.90
37410;DHT22;23275;48.914;12.566;2023-04-01T13:22:25;10.40;99.90
37410;DHT22;23275;48.914;12.566;2023-04-01T13:27:45;10.40;99.90
37410;DHT22;23275;48.914;12.566;2023-04-01T13:30:33;10.50;99.90
37410;DHT22;23275;48.914;12.566;2023-04-01T13:33:17;10.70;99.90
37410;DHT22;23275;48.914;12.566;2023-04-01T13:36:53;10.70;99.90
37410;DHT22;23275;48.914;12.566;2023-04-01T13:38:56;10.60;99.90
37410;DHT22;23275;48.914;12.566;2023-04-01T13:41:45;10.60;99.90
37410;DHT22;23275;48.914;12.566;2023-04-01T13:44:18;10.50;99.90
37410;DHT22;23275;48.914;12.566;2023-04-01T13:47:02;10.50;99.90
37410;DHT22;23275;48.914;12.566;2023-04-01T13:49:48;10.40;99.90
37410;DHT22;23275;48.914;12.566;2023-04-01T13:55:25;10.30;99.90
37410;DHT22;23275;48.914;12.566;2023-04-01T13:58:20;10.30;99.90
37410;DHT22;23275;48.914;12.566;2023-04-01T14:03:54;10.20;99.90
37410;DHT22;23275;48.914;12.566;2023-04-01T14:07:11;10.20;99.90
37410;DHT22;23275;48.914;12.566;2023-04-01T14:09:33;10.20;99.90
37410;DHT22;23275;48.914;12.566;2023-04-01T14:17:59;10.40;99.90
37410;DHT22;23275;48.914;12.566;2023-04-01T14:20:39;10.40;99.90
37410;DHT22;23275;48.914;12.566;2023-04-01T14:26:02;10.20;99.90
37410;DHT22;23275;48.914;12.566;2023-04-01T14:31:22;10.00;99.90
37410;DHT22;23275;48.914;12.566;2023-04-01T14:33:58;10.00;99.90
37410;DHT22;23275;48.914;12.566;2023-04-01T14:47:43;10.00;99.90
37410;DHT22;23275;48.914;12.566;2023-04-01T14:50:17;10.00;99.90
37410;DHT22;23275;48.914;12.566;2023-04-01T14:55:48;10.10;99.90
37410;DHT22;23275;48.914;12.566;2023-04-01T14:58:17;10.00;99.90
37410;DHT22;23275;48.914;12.566;2023-04-01T15:03:29;9.90;99.90
37410;DHT22;23275;48.914;12.566;2023-04-01T15:06:29;9.80;99.90
37410;DHT22;23275;48.914;12.566;2023-04-01T15:09:31;9.80;99.90
37410;DHT22;23275;48.914;12.566;2023-04-01T15:12:37;9.80;99.90
37410;DHT22;23275;48.914;12.566;2023-04-01T15:15:19;9.80;99.90
37410;DHT22;23275;48.914;12.566;2023-04-01T15:17:58;9.70;99.90
37410;DHT22;23275;48.914;12.566;2023-04-01T15:23:25;9.70;99.90
37410;DHT22;23275;48.914;12.566;2023-04-01T15:34:35;9.70;99.90
37410;DHT22;23275;48.914;12.566;2023-04-01T15:37:18;9.70;99.90
37410;DHT22;23275;48.914;12.566;2023-04-01T15:39:57;9.80;99.90
37410;DHT22;23275;48.914;12.566;2023-04-01T15:45:47;9.70;99.90
37410;DHT22;23275;48.914;12.566;2023-04-01T15:59:42;9.50;99.90
37410;DHT22;23275;48.914;12.566;2023-04-01T16:16:31;9.50;99.90
37410;DHT22;23275;48.914;12.566;2023-04-01T16:22:13;9.60;99.90
37410;DHT22;23275;48.914;12.566;2023-04-01T16:30:40;9.50;99.90
37410;DHT22;23275;48.914;12.566;2023-04-01T16:36:28;9.40;99.90
37410;DHT22;23275;48.914;12.566;2023-04-01T16:44:48;9.40;99.90
37410;DHT22;23275;48.914;12.566;2023-04-01T16:47:35;9.30;99.90
37410;DHT22;23275;48.914;12.566;2023-04-01T16:53:14;9.30;99.90
37410;DHT22;23275;48.914;12.566;2023-04-01T16:55:53;9.30;99.90
37410;DHT22;23275;48.914;12.566;2023-04-01T16:58:34;9.20;99.90
37410;DHT22;23275;48.914;12.566;2023-04-01T17:01:12;9.20;99.90
37410;DHT22;23275;48.914;12.566;2023-04-01T17:03:44;9.20;99.90
37410;DHT22;23275;48.914;12.566;2023-04-01T17:06:33;9.20;99.90
37410;DHT22;23275;48.914;12.566;2023-04-01T17:12:17;9.10;99.90
37410;DHT22;23275;48.914;12.566;2023-04-01T17:14:59;9.20;99.90
37410;DHT22;23275;48.914;12.566;2023-04-01T17:20:19;9.10;99.90
37410;DHT22;23275;48.914;12.566;2023-04-01T17:23:13;9.10;99.90
37410;DHT22;23275;48.914;12.566;2023-04-01T17:26:04;9.00;99.90
37410;DHT22;23275;48.914;12.566;2023-04-01T17:34:43;9.00;99.90
37410;DHT22;23275;48.914;12.566;2023-04-01T17:42:52;9.00;99.90
37410;DHT22;23275;48.914;12.566;2023-04-01T17:56:32;8.80;99.90
37410;DHT22;23275;48.914;12.566;2023-04-01T18:10:02;8.70;99.90
37410;DHT22;23275;48.914;12.566;2023-04-01T18:15:56;8.70;99.90
37410;DHT22;23275;48.914;12.566;2023-04-01T18:21:33;8.70;99.90
37410;DHT22;23275;48.914;12.566;2023-04-01T18:27:07;8.60;99.90
37410;DHT22;23275;48.914;12.566;2023-04-01T18:29:54;8.60;99.90
37410;DHT22;23275;48.914;12.566;2023-04-01T18:32:31;8.60;99.90
37410;DHT22;23275;48.914;12.566;2023-04-01T18:35:21;8.60;99.90
37410;DHT22;23275;48.914;12.566;2023-04-01T18:38:44;8.60;99.90
37410;DHT22;23275;48.914;12.566;2023-04-01T18:41:34;8.60;99.90
37410;DHT22;23275;48.914;12.566;2023-04-01T18:52:44;8.60;99.90
37410;DHT22;23275;48.914;12.566;2023-04-01T18:55:30;8.60;99.90
37410;DHT22;23275;48.914;12.566;2023-04-01T18:58:35;8.60;99.90
37410;DHT22;23275;48.914;12.566;2023-04-01T19:01:15;8.60;99.90
37410;DHT22;23275;48.914;12.566;2023-04-01T19:04:11;8.60;99.90
37410;DHT22;23275;48.914;12.566;2023-04-01T19:09:22;8.60;99.90
37410;DHT22;23275;48.914;12.566;2023-04-01T19:13:02;8.60;99.90
37410;DHT22;23275;48.914;12.566;2023-04-01T19:20:03;8.60;99.90
37410;DHT22;23275;48.914;12.566;2023-04-01T19:22:58;8.60;99.90
37410;DHT22;23275;48.914;12.566;2023-04-01T19:25:51;8.50;99.90
37410;DHT22;23275;48.914;12.566;2023-04-01T19:28:34;8.50;99.90
37410;DHT22;23275;48.914;12.566;2023-04-01T19:34:28;8.60;99.90
37410;DHT22;23275;48.914;12.566;2023-04-01T19:37:08;8.50;99.90
37410;DHT22;23275;48.914;12.566;2023-04-01T19:40:03;8.50;99.90
37410;DHT22;23275;48.914;12.566;2023-04-01T19:52:57;8.50;99.90
37410;DHT22;23275;48.914;12.566;2023-04-01T20:01:08;8.40;99.90
37410;DHT22;23275;48.914;12.566;2023-04-01T20:03:51;8.50;99.90
37410;DHT22;23275;48.914;12.566;2023-04-01T20:11:58;8.50;99.90
37410;DHT22;23275;48.914;12.566;2023-04-01T20:14:48;8.40;99.90
37410;DHT22;23275;48.914;12.566;2023-04-01T20:17:33;8.50;99.90
37410;DHT22;23275;48.914;12.566;2023-04-01T20:25:18;8.40;99.90
37410;DHT22;23275;48.914;12.566;2023-04-01T20:28:00;8.40;99.90
37410;DHT22;23275;48.914;12.566;2023-04-01T20:40:58;8.50;99.90
37410;DHT22;23275;48.914;12.566;2023-04-01T20:43:40;8.40;99.90
37410;DHT22;23275;48.914;12.566;2023-04-01T20:46:37;8.40;99.90
37410;DHT22;23275;48.914;12.566;2023-04-01T20:49:15;8.40;99.90
37410;DHT22;23275;48.914;12.566;2023-04-01T20:58:10;8.50;99.90
37410;DHT22;23275;48.914;12.566;2023-04-01T21:03:15;8.50;99.90
37410;DHT22;23275;48.914;12.566;2023-04-01T21:20:18;8.40;99.90
37410;DHT22;23275;48.914;12.566;2023-04-01T21:28:35;8.40;99.90
37410;DHT22;23275;48.914;12.566;2023-04-01T21:48:12;8.50;99.90
37410;DHT22;23275;48.914;12.566;2023-04-01T21:52:01;8.50;99.90
37410;DHT22;23275;48.914;12.566;2023-04-01T22:00:09;8.50;99.90
37410;DHT22;23275;48.914;12.566;2023-04-01T22:03:01;8.50;99.90
37410;DHT22;23275;48.914;12.566;2023-04-01T22:06:07;8.50;99.90
37410;DHT22;23275;48.914;12.566;2023-04-01T22:08:44;8.50;99.90
37410;DHT22;23275;48.914;12.566;2023-04-01T22:19:15;8.50;99.90
37410;DHT22;23275;48.914;12.566;2023-04-01T22:32:47;8.40;99.90
37410;DHT22;23275;48.914;12.566;2023-04-01T22:35:33;8.40;99.90
37410;DHT22;23275;48.914;12.566;2023-04-01T22:43:36;8.40;99.90
37410;DHT22;23275;48.914;12.566;2023-04-01T22:49:09;8.40;99.90
37410;DHT22;23275;48.914;12.566;2023-04-01T22:51:43;8.40;99.90
37410;DHT22;23275;48.914;12.566;2023-04-01T22:54:30;8.30;99.90
37410;DHT22;23275;48.914;12.566;2023-04-01T23:00:01;8.20;99.90
37410;DHT22;23275;48.914;12.566;2023-04-01T23:02:36;8.20;99.90
37410;DHT22;23275;48.914;12.566;2023-04-01T23:05:05;8.30;99.90
37410;DHT22;23275;48.914;12.566;2023-04-01T23:10:04;8.20;99.90
37410;DHT22;23275;48.914;12.566;2023-04-01T23:12:32;8.30;99.90
37410;DHT22;23275;48.914;12.566;2023-04-01T23:15:00;8.20;99.90
37410;DHT22;23275;48.914;12.566;2023-04-01T23:17:58;8.30;99.90
37410;DHT22;23275;48.914;12.566;2023-04-01T23:28:47;8.20;99.90
37410;DHT22;23275;48.914;12.566;2023-04-01T23:31:35;8.20;99.90
37410;DHT22;23275;48.914;12.566;2023-04-01T23:34:18;8.20;99.90
37410;DHT22;23275;48.914;12.566;2023-04-01T23:37:18;8.20;99.90
37410;DHT22;23275;48.914;12.566;2023-04-01T23:39:46;8.20;99.90
37410;DHT22;23275;48.914;12.566;2023-04-01T23:42:28;8.20;99.90
37410;DHT22;23275;48.914;12.566;2023-04-01T23:44:56;8.20;99.90
37410;DHT22;23275;48.914;12.566;2023-04-01T23:47:26;8.30;99.90
37410;DHT22;23275;48.914;12.566;2023-04-01T23:50:03;8.20;99.90
37410;DHT22;23275;48.914;12.566;2023-04-01T23:52:53;8.20;99.90
37410;DHT22;23275;48.914;12.566;2023-04-01T23:55:31;8.20;99.90
